createdAt,value
2022-08-14T00:02:21.891Z,23.40
2022-08-14T00:04:51.502Z,23.30
2022-08-14T00:07:18.673Z,23.30
2022-08-14T00:10:01.736Z,23.30
2022-08-14T00:12:39.186Z,23.30
2022-08-14T00:15:48.310Z,23.30
2022-08-14T00:18:30.956Z,23.30
2022-08-14T00:21:11.385Z,23.20
2022-08-14T00:23:39.109Z,23.10
2022-08-14T00:26:08.415Z,23.00
2022-08-14T00:28:49.131Z,22.90
2022-08-14T00:31:16.723Z,22.90
2022-08-14T00:33:52.247Z,22.80
2022-08-14T00:36:37.140Z,22.70
2022-08-14T00:39:18.387Z,22.60
2022-08-14T00:41:48.868Z,22.70
2022-08-14T00:44:26.620Z,22.60
2022-08-14T00:47:03.809Z,22.50
2022-08-14T00:49:43.155Z,22.50
2022-08-14T00:52:13.992Z,22.50
2022-08-14T00:54:45.573Z,22.40
2022-08-14T00:57:13.323Z,22.40
2022-08-14T00:59:41.448Z,22.40
2022-08-14T01:02:09.370Z,22.40
2022-08-14T01:04:53.728Z,22.30
2022-08-14T01:07:24.229Z,22.30
2022-08-14T01:09:57.148Z,22.30
2022-08-14T01:12:26.927Z,22.20
2022-08-14T01:14:58.863Z,22.10
2022-08-14T01:17:51.998Z,22.10
2022-08-14T01:20:40.827Z,22.10
2022-08-14T01:23:16.571Z,22.00
2022-08-14T01:25:51.484Z,22.00
2022-08-14T01:28:34.393Z,21.90
2022-08-14T01:31:15.907Z,21.90
2022-08-14T01:33:59.896Z,21.90
2022-08-14T01:36:39.436Z,21.80
2022-08-14T01:39:13.644Z,21.80
2022-08-14T01:41:43.917Z,21.80
2022-08-14T01:44:33.564Z,21.80
2022-08-14T01:47:19.568Z,21.80
2022-08-14T01:49:59.903Z,21.70
2022-08-14T01:52:34.778Z,21.60
2022-08-14T01:55:20.017Z,21.60
2022-08-14T01:58:00.974Z,21.50
2022-08-14T02:00:29.519Z,21.40
2022-08-14T02:03:03.713Z,21.40
2022-08-14T02:05:35.585Z,21.40
2022-08-14T02:08:08.841Z,21.40
2022-08-14T02:10:47.250Z,21.30
2022-08-14T02:13:17.494Z,21.30
2022-08-14T02:15:45.781Z,21.20
2022-08-14T02:18:15.958Z,21.20
2022-08-14T02:20:42.909Z,21.20
2022-08-14T02:23:12.408Z,21.10
2022-08-14T02:25:39.638Z,21.10
2022-08-14T02:28:23.307Z,21.10
2022-08-14T02:30:54.585Z,21.00
2022-08-14T02:33:22.704Z,21.00
2022-08-14T02:35:53.319Z,21.00
2022-08-14T02:38:29.874Z,21.00
2022-08-14T02:40:58.681Z,20.80
2022-08-14T02:49:33.980Z,20.70
2022-08-14T02:52:02.155Z,20.70
2022-08-14T02:54:42.943Z,20.70
2022-08-14T02:57:16.680Z,20.60
2022-08-14T02:59:58.676Z,20.60
2022-08-14T03:02:49.481Z,20.50
2022-08-14T03:05:13.826Z,20.50
2022-08-14T03:07:41.697Z,20.50
2022-08-14T03:10:27.959Z,20.50
2022-08-14T03:12:57.460Z,20.40
2022-08-14T03:15:24.613Z,20.30
2022-08-14T03:17:56.899Z,20.30
2022-08-14T03:20:30.328Z,20.30
2022-08-14T03:22:59.573Z,20.30
2022-08-14T03:25:31.062Z,20.20
2022-08-14T03:28:02.683Z,20.20
2022-08-14T03:30:40.003Z,20.10
2022-08-14T03:33:12.603Z,20.10
2022-08-14T03:36:05.463Z,20.00
2022-08-14T03:39:13.384Z,20.00
2022-08-14T03:41:23.244Z,19.90
2022-08-14T03:43:57.430Z,19.90
2022-08-14T03:46:51.994Z,19.90
2022-08-14T03:49:28.799Z,19.90
2022-08-14T03:52:01.241Z,19.90
2022-08-14T03:54:29.418Z,19.80
2022-08-14T03:57:02.980Z,19.80
2022-08-14T03:59:35.448Z,19.80
2022-08-14T04:02:04.410Z,19.80
2022-08-14T04:04:33.552Z,19.70
2022-08-14T04:07:01.000Z,19.70
2022-08-14T04:09:29.412Z,19.70
2022-08-14T04:11:58.010Z,19.60
2022-08-14T04:14:25.415Z,19.60
2022-08-14T04:16:52.350Z,19.60
2022-08-14T04:19:23.947Z,19.60
2022-08-14T04:22:03.611Z,19.60
2022-08-14T04:24:38.635Z,19.60
2022-08-14T04:27:13.358Z,19.60
2022-08-14T04:29:45.399Z,19.60
2022-08-14T04:33:02.249Z,19.60
2022-08-14T04:35:07.616Z,19.60
2022-08-14T04:37:56.039Z,19.60
2022-08-14T04:40:42.103Z,19.60
2022-08-14T04:43:38.703Z,19.60
2022-08-14T04:46:57.096Z,19.60
2022-08-14T04:49:00.223Z,19.60
2022-08-14T04:51:28.194Z,19.60
2022-08-14T04:53:57.174Z,19.60
2022-08-14T04:56:30.545Z,19.60
2022-08-14T04:59:09.369Z,19.60
2022-08-14T05:01:49.113Z,19.60
2022-08-14T05:04:20.173Z,19.60
2022-08-14T05:06:54.148Z,19.60
2022-08-14T05:09:29.306Z,19.60
2022-08-14T05:12:54.851Z,19.60
2022-08-14T05:14:54.557Z,19.70
2022-08-14T05:17:24.679Z,19.70
2022-08-14T05:21:54.997Z,19.70
2022-08-14T05:22:46.387Z,19.70
2022-08-14T05:25:13.381Z,19.60
2022-08-14T05:27:42.533Z,19.70
2022-08-14T05:30:10.169Z,19.70
2022-08-14T05:32:38.845Z,19.70
2022-08-14T05:35:06.263Z,19.70
2022-08-14T05:37:34.972Z,19.70
2022-08-14T05:40:02.198Z,19.70
2022-08-14T05:42:34.038Z,19.70
2022-08-14T05:45:03.973Z,19.80
2022-08-14T05:47:38.871Z,19.80
2022-08-14T05:50:17.486Z,19.80
2022-08-14T05:52:46.345Z,19.90
2022-08-14T05:55:13.530Z,19.90
2022-08-14T05:57:57.728Z,19.90
2022-08-14T06:00:41.091Z,19.90
2022-08-14T06:03:11.350Z,19.90
2022-08-14T06:05:40.102Z,20.00
2022-08-14T06:08:31.515Z,20.00
2022-08-14T06:11:06.903Z,20.10
2022-08-14T06:13:44.638Z,20.10
2022-08-14T06:16:17.716Z,20.20
2022-08-14T06:18:52.569Z,20.20
2022-08-14T06:21:21.625Z,20.30
2022-08-14T06:23:49.799Z,20.40
2022-08-14T06:26:20.803Z,20.50
2022-08-14T06:28:52.124Z,20.60
2022-08-14T06:31:21.031Z,20.70
2022-08-14T06:35:11.806Z,20.80
2022-08-14T06:36:38.524Z,21.00
2022-08-14T06:39:08.130Z,21.20
2022-08-14T06:41:58.145Z,21.40
2022-08-14T06:44:30.848Z,21.50
2022-08-14T06:47:00.621Z,21.70
2022-08-14T06:49:28.125Z,21.90
2022-08-14T06:51:57.515Z,22.10
2022-08-14T06:54:31.261Z,22.20
2022-08-14T06:56:59.159Z,22.40
2022-08-14T06:59:26.491Z,22.50
2022-08-14T07:02:13.529Z,22.70
2022-08-14T07:05:05.313Z,23.00
2022-08-14T07:07:41.366Z,23.30
2022-08-14T07:10:13.402Z,23.60
2022-08-14T07:13:01.387Z,23.80
2022-08-14T07:15:29.430Z,24.10
2022-08-14T07:17:57.144Z,24.40
2022-08-14T07:20:30.571Z,24.80
2022-08-14T07:23:05.344Z,25.20
2022-08-14T07:25:42.090Z,25.60
2022-08-14T07:28:24.586Z,26.00
2022-08-14T07:31:04.729Z,26.40
2022-08-14T07:33:43.634Z,26.70
2022-08-14T07:36:27.664Z,27.20
2022-08-14T07:39:03.219Z,27.50
2022-08-14T07:41:39.245Z,27.90
2022-08-14T07:44:32.058Z,28.00
2022-08-14T07:46:58.421Z,28.10
2022-08-14T07:49:26.960Z,28.40
2022-08-14T07:51:54.063Z,29.00
2022-08-14T07:54:23.721Z,29.60
2022-08-14T07:57:12.324Z,30.30
2022-08-14T07:59:43.537Z,30.80
2022-08-14T08:02:18.956Z,31.30
2022-08-14T08:04:54.416Z,31.80
2022-08-14T08:07:24.808Z,32.20
2022-08-14T08:09:58.295Z,32.70
2022-08-14T08:12:30.905Z,33.10
2022-08-14T08:15:03.220Z,33.50
2022-08-14T08:17:42.565Z,33.70
2022-08-14T08:20:24.729Z,33.70
2022-08-14T08:22:56.897Z,33.80
2022-08-14T08:25:31.296Z,33.50
2022-08-14T08:28:08.370Z,33.40
2022-08-14T08:30:49.231Z,33.60
2022-08-14T08:33:18.463Z,33.70
2022-08-14T08:35:50.400Z,33.80
2022-08-14T08:39:17.342Z,34.00
2022-08-14T08:41:10.878Z,34.50
2022-08-14T08:43:46.286Z,35.00
2022-08-14T08:46:23.972Z,35.40
2022-08-14T08:51:33.371Z,36.40
2022-08-14T08:54:11.865Z,36.90
2022-08-14T08:56:47.999Z,37.30
2022-08-14T08:59:30.937Z,37.70
2022-08-14T09:02:01.256Z,38.00
2022-08-14T09:04:52.871Z,38.30
2022-08-14T09:07:27.082Z,38.40
2022-08-14T09:09:59.328Z,38.90
2022-08-14T09:12:32.391Z,39.40
2022-08-14T09:15:11.387Z,39.80
2022-08-14T09:17:43.064Z,40.10
2022-08-14T09:20:12.428Z,40.50
2022-08-14T09:22:47.802Z,41.00
2022-08-14T09:25:16.911Z,41.30
2022-08-14T09:27:44.038Z,41.40
2022-08-14T09:30:31.100Z,41.30
2022-08-14T09:33:06.063Z,41.30
2022-08-14T09:35:48.560Z,40.70
2022-08-14T09:38:49.249Z,40.00
2022-08-14T09:42:17.367Z,39.70
2022-08-14T09:45:08.361Z,40.10
2022-08-14T09:47:54.067Z,41.10
2022-08-14T09:50:26.262Z,41.80
2022-08-14T09:53:05.743Z,42.30
2022-08-14T09:55:45.569Z,42.60
2022-08-14T09:58:22.625Z,42.90
2022-08-14T10:01:00.740Z,43.10
2022-08-14T10:03:33.843Z,43.30
2022-08-14T10:06:21.612Z,43.60
2022-08-14T10:08:51.622Z,43.90
2022-08-14T10:11:34.962Z,44.00
2022-08-14T10:14:29.287Z,44.00
2022-08-14T10:17:06.021Z,44.20
2022-08-14T10:19:36.477Z,44.30
2022-08-14T10:23:14.917Z,44.50
2022-08-14T10:24:59.876Z,44.50
2022-08-14T10:27:28.259Z,44.50
2022-08-14T10:30:01.490Z,44.70
2022-08-14T10:32:40.004Z,45.20
2022-08-14T10:35:14.517Z,45.40
2022-08-14T10:37:48.699Z,45.40
2022-08-14T10:40:38.187Z,45.30
2022-08-14T10:43:26.236Z,44.60
2022-08-14T10:46:21.724Z,44.40
2022-08-14T10:49:04.339Z,44.60
2022-08-14T10:51:36.350Z,44.70
2022-08-14T10:54:26.178Z,44.60
2022-08-14T10:56:57.364Z,44.40
2022-08-14T10:59:34.907Z,44.20
2022-08-14T11:02:03.379Z,44.30
2022-08-14T11:04:31.244Z,44.50
2022-08-14T11:06:59.356Z,44.20
2022-08-14T11:09:32.082Z,43.60
2022-08-14T11:12:36.593Z,43.40
2022-08-14T11:15:01.834Z,43.50
2022-08-14T11:17:32.693Z,43.70
2022-08-14T11:20:02.443Z,43.70
2022-08-14T11:22:56.650Z,43.90
2022-08-14T11:25:21.273Z,44.20
2022-08-14T11:27:49.547Z,44.40
2022-08-14T11:30:50.313Z,44.30
2022-08-14T11:33:08.962Z,43.90
2022-08-14T11:35:47.219Z,43.70
2022-08-14T11:38:17.247Z,43.10
2022-08-14T11:40:52.505Z,42.90
2022-08-14T11:43:29.045Z,42.70
2022-08-14T11:45:57.301Z,42.40
2022-08-14T11:49:02.687Z,42.20
2022-08-14T11:54:15.542Z,42.30
2022-08-14T11:56:50.750Z,41.80
2022-08-14T11:59:19.860Z,41.00
2022-08-14T12:01:58.837Z,40.50
2022-08-14T12:04:33.210Z,39.90
2022-08-14T12:07:07.789Z,39.50
2022-08-14T12:09:37.405Z,39.10
2022-08-14T12:12:35.949Z,38.90
2022-08-14T12:15:05.501Z,38.50
2022-08-14T12:17:53.372Z,38.00
2022-08-14T12:20:32.546Z,37.50
2022-08-14T12:23:01.783Z,37.80
2022-08-14T12:25:29.999Z,38.20
2022-08-14T12:28:10.219Z,38.30
2022-08-14T12:30:56.714Z,38.00
2022-08-14T12:33:30.726Z,37.70
2022-08-14T12:36:05.877Z,37.30
2022-08-14T12:38:43.633Z,37.00
2022-08-14T12:41:21.729Z,37.10
2022-08-14T12:43:56.500Z,37.50
2022-08-14T12:46:27.349Z,38.40
2022-08-14T12:49:06.998Z,39.00
2022-08-14T12:51:35.585Z,39.10
2022-08-14T12:54:18.599Z,38.70
2022-08-14T12:57:08.509Z,38.30
2022-08-14T12:59:37.234Z,38.00
2022-08-14T13:02:26.303Z,37.60
2022-08-14T13:04:56.743Z,37.10
2022-08-14T13:07:32.861Z,36.60
2022-08-14T13:10:47.604Z,36.00
2022-08-14T13:15:47.523Z,35.60
2022-08-14T13:18:17.961Z,36.00
2022-08-14T13:20:51.319Z,36.30
2022-08-14T13:23:31.594Z,36.60
2022-08-14T13:26:00.174Z,36.80
2022-08-14T13:28:32.122Z,37.00
2022-08-14T13:31:09.059Z,37.00
2022-08-14T13:33:40.888Z,36.80
2022-08-14T13:36:24.197Z,36.50
2022-08-14T13:39:00.739Z,35.90
2022-08-14T13:41:31.721Z,35.40
2022-08-14T13:44:04.196Z,34.90
2022-08-14T13:46:31.362Z,34.60
2022-08-14T13:48:59.877Z,34.40
2022-08-14T13:51:32.813Z,34.30
2022-08-14T13:54:10.830Z,34.20
2022-08-14T13:56:42.087Z,34.00
2022-08-14T13:59:10.191Z,33.80
2022-08-14T14:01:43.432Z,33.70
2022-08-14T14:04:23.261Z,33.70
2022-08-14T14:06:52.218Z,33.60
2022-08-14T14:09:37.492Z,33.50
2022-08-14T14:12:38.101Z,33.50
2022-08-14T14:15:04.999Z,33.50
2022-08-14T14:17:32.754Z,33.50
2022-08-14T14:20:01.337Z,33.50
2022-08-14T14:22:35.908Z,33.50
2022-08-14T14:25:22.151Z,33.60
2022-08-14T14:27:53.607Z,33.50
2022-08-14T14:30:46.929Z,33.40
2022-08-14T14:33:42.265Z,33.20
2022-08-14T14:36:01.646Z,33.00
2022-08-14T14:38:33.137Z,32.80
2022-08-14T14:41:03.361Z,32.60
2022-08-14T14:43:35.525Z,32.50
2022-08-14T14:46:08.611Z,32.40
2022-08-14T14:48:46.802Z,32.20
2022-08-14T14:51:22.089Z,32.20
2022-08-14T14:53:49.482Z,32.00
2022-08-14T14:56:50.396Z,32.00
2022-08-14T14:59:06.247Z,32.00
2022-08-14T15:01:37.532Z,32.00
2022-08-14T15:04:19.764Z,32.00
2022-08-14T15:06:48.931Z,31.90
2022-08-14T15:09:17.641Z,32.00
2022-08-14T15:11:47.168Z,31.90
2022-08-14T15:14:54.677Z,31.90
2022-08-14T15:17:02.322Z,31.80
2022-08-14T15:19:32.021Z,31.70
2022-08-14T15:21:59.414Z,31.70
2022-08-14T15:24:27.079Z,31.70
2022-08-14T15:26:58.739Z,31.60
2022-08-14T15:29:27.707Z,31.40
2022-08-14T15:35:51.065Z,31.10
2022-08-14T15:38:29.215Z,30.80
2022-08-14T15:41:11.513Z,30.70
2022-08-14T15:46:43.383Z,30.40
2022-08-14T15:49:20.688Z,30.30
2022-08-14T15:52:08.722Z,30.30
2022-08-14T15:54:41.030Z,30.20
2022-08-14T16:00:40.068Z,30.10
2022-08-14T16:03:08.794Z,30.10
2022-08-14T16:05:38.243Z,30.00
2022-08-14T16:08:29.663Z,30.00
2022-08-14T16:10:57.745Z,29.90
2022-08-14T16:13:41.261Z,29.80
2022-08-14T16:16:47.218Z,29.70
2022-08-14T16:19:10.178Z,29.60
2022-08-14T16:21:40.514Z,29.60
2022-08-14T16:24:27.839Z,29.50
2022-08-14T16:27:00.989Z,29.50
2022-08-14T16:29:34.567Z,29.40
2022-08-14T16:32:32.545Z,29.40
2022-08-14T16:34:54.734Z,29.30
2022-08-14T16:37:33.914Z,29.20
2022-08-14T16:40:02.224Z,29.20
2022-08-14T16:43:03.432Z,29.20
2022-08-14T16:45:25.197Z,29.10
2022-08-14T16:47:52.630Z,29.10
2022-08-14T16:50:40.442Z,29.10
2022-08-14T16:53:09.697Z,29.10
2022-08-14T16:55:53.251Z,29.10
2022-08-14T16:58:29.670Z,29.00
2022-08-14T17:01:24.685Z,28.90
2022-08-14T17:03:53.444Z,28.80
2022-08-14T17:06:38.466Z,28.70
2022-08-14T17:09:24.006Z,28.70
2022-08-14T17:12:07.626Z,28.60
2022-08-14T17:15:15.110Z,28.60
2022-08-14T17:17:58.314Z,28.50
2022-08-14T17:20:54.556Z,28.50
2022-08-14T17:23:14.943Z,28.40
2022-08-14T17:25:50.847Z,28.30
2022-08-14T17:28:52.582Z,28.30
2022-08-14T17:31:12.350Z,28.20
2022-08-14T17:33:44.793Z,28.20
2022-08-14T17:36:24.093Z,28.20
2022-08-14T17:39:02.726Z,28.10
2022-08-14T17:41:47.773Z,28.10
2022-08-14T17:44:33.821Z,28.00
2022-08-14T17:47:14.831Z,28.00
2022-08-14T17:49:51.751Z,27.90
2022-08-14T17:52:34.612Z,27.90
2022-08-14T17:55:32.841Z,27.90
2022-08-14T17:57:58.803Z,27.90
2022-08-14T18:00:26.330Z,27.80
2022-08-14T18:02:54.736Z,27.80
2022-08-14T18:06:08.979Z,27.70
2022-08-14T18:08:33.975Z,27.70
2022-08-14T18:11:00.028Z,27.70
2022-08-14T18:13:49.963Z,27.60
2022-08-14T18:16:20.236Z,27.60
2022-08-14T18:18:49.430Z,27.50
2022-08-14T18:21:42.925Z,27.50
2022-08-14T18:24:05.049Z,27.40
2022-08-14T18:27:15.619Z,27.40
2022-08-14T18:29:57.949Z,27.30
2022-08-14T18:32:55.409Z,27.20
2022-08-14T18:41:38.681Z,27.10
2022-08-14T18:48:16.537Z,27.00
2022-08-14T18:50:52.625Z,27.00
2022-08-14T18:57:59.720Z,26.90
2022-08-14T19:00:33.938Z,26.80
2022-08-14T19:03:06.929Z,26.80
2022-08-14T19:05:39.226Z,26.70
2022-08-14T19:08:24.882Z,26.70
2022-08-14T19:10:59.493Z,26.60
2022-08-14T19:13:48.249Z,26.60
2022-08-14T19:16:22.757Z,26.60
2022-08-14T19:18:53.795Z,26.60
2022-08-14T19:21:32.522Z,26.60
2022-08-14T19:24:27.702Z,26.50
2022-08-14T19:27:23.886Z,26.50
2022-08-14T19:30:21.502Z,26.50
2022-08-14T19:32:53.195Z,26.40
2022-08-14T19:35:48.631Z,26.40
2022-08-14T19:38:33.439Z,26.40
2022-08-14T19:41:13.177Z,26.30
2022-08-14T19:43:56.633Z,26.30
2022-08-14T19:46:39.301Z,26.20
2022-08-14T19:50:24.486Z,26.20
2022-08-14T19:52:40.069Z,26.20
2022-08-14T19:55:19.114Z,26.20
2022-08-14T19:57:52.205Z,26.20
2022-08-14T20:00:29.281Z,26.20
2022-08-14T20:03:10.651Z,26.20
2022-08-14T20:05:45.491Z,26.20
2022-08-14T20:10:59.135Z,26.10
2022-08-14T20:11:14.981Z,26.00
2022-08-14T20:14:10.532Z,26.00
2022-08-14T20:17:05.986Z,26.00
2022-08-14T20:19:37.362Z,26.00
2022-08-14T20:22:36.465Z,26.00
2022-08-14T20:24:56.636Z,26.00
2022-08-14T20:27:24.993Z,25.90
2022-08-14T20:30:29.756Z,25.90
2022-08-14T20:33:07.933Z,25.90
2022-08-14T20:35:42.103Z,25.90
2022-08-14T20:38:29.494Z,25.90
2022-08-14T20:41:00.631Z,25.90
2022-08-14T20:43:52.751Z,25.80
2022-08-14T20:46:29.849Z,25.80
2022-08-14T20:49:18.528Z,25.80
2022-08-14T20:51:58.690Z,25.80
2022-08-14T20:54:33.788Z,25.70
2022-08-14T20:57:09.957Z,25.70
2022-08-14T20:59:53.666Z,25.80
2022-08-14T21:02:34.550Z,25.70
2022-08-14T21:05:17.274Z,25.70
2022-08-14T21:07:50.771Z,25.70
2022-08-14T21:10:32.729Z,25.70
2022-08-14T21:14:08.755Z,25.60
2022-08-14T21:15:58.183Z,25.60
2022-08-14T21:18:32.218Z,25.60
2022-08-14T21:21:07.692Z,25.60
2022-08-14T21:23:54.380Z,25.60
2022-08-14T21:26:52.294Z,25.60
2022-08-14T21:29:11.405Z,25.60
2022-08-14T21:31:40.457Z,25.50
2022-08-14T21:34:27.499Z,25.50
2022-08-14T21:36:54.726Z,25.50
2022-08-14T21:39:24.053Z,25.50
2022-08-14T21:41:58.357Z,25.50
2022-08-14T21:44:42.862Z,25.40
2022-08-14T21:47:12.631Z,25.40
2022-08-14T21:49:43.135Z,25.40
2022-08-14T21:52:49.499Z,25.30
2022-08-14T21:55:10.180Z,25.20
2022-08-14T21:57:57.041Z,25.10
2022-08-14T22:00:36.706Z,25.10
2022-08-14T22:03:17.150Z,25.10
2022-08-14T22:05:47.092Z,25.10
2022-08-14T22:08:14.475Z,25.10
2022-08-14T22:10:46.411Z,25.00
2022-08-14T22:13:19.687Z,24.90
2022-08-14T22:15:49.631Z,24.90
2022-08-14T22:18:19.834Z,24.80
2022-08-14T22:20:53.489Z,24.80
2022-08-14T22:23:21.777Z,24.70
2022-08-14T22:25:50.477Z,24.70
2022-08-14T22:28:25.392Z,24.60
2022-08-14T22:30:54.777Z,24.60
2022-08-14T22:33:30.804Z,24.60
2022-08-14T22:35:59.430Z,24.50
2022-08-14T22:38:35.448Z,24.50
2022-08-14T22:41:27.421Z,24.50
2022-08-14T22:44:10.882Z,24.40
2022-08-14T22:46:43.153Z,24.40
2022-08-14T22:49:16.890Z,24.40
2022-08-14T22:51:58.085Z,24.40
2022-08-14T22:54:52.654Z,24.30
2022-08-14T22:57:14.996Z,24.20
2022-08-14T22:59:42.330Z,24.20
2022-08-14T23:02:30.467Z,24.00
2022-08-14T23:04:58.186Z,23.80
2022-08-14T23:08:59.555Z,23.40
2022-08-14T23:10:31.774Z,23.10
2022-08-14T23:13:00.772Z,22.80
2022-08-14T23:15:29.009Z,22.50
2022-08-14T23:17:58.410Z,22.40
2022-08-14T23:20:29.130Z,22.20
2022-08-14T23:22:57.684Z,21.90
2022-08-14T23:25:57.611Z,21.80
2022-08-14T23:28:34.393Z,21.60
2022-08-14T23:31:08.392Z,21.40
2022-08-14T23:33:46.135Z,21.10
2022-08-14T23:36:28.452Z,20.90
2022-08-14T23:39:10.423Z,20.80
2022-08-14T23:41:46.992Z,20.70
2022-08-14T23:44:22.554Z,20.50
2022-08-14T23:46:56.546Z,20.50
2022-08-14T23:49:25.523Z,20.30
2022-08-14T23:52:49.731Z,20.30
2022-08-14T23:54:48.434Z,20.20
2022-08-14T23:57:19.328Z,20.10
2022-08-14T23:59:54.186Z,20.00
